Terminal Aerodrome Forecast
Issued by NWS

Home | Current Version | Previous Version | Text Only | Print | Product List | Glossary Off
Versions: 1 2 3 4 5 6 7 8 9 10 11 12 13 14

000
FTUS43 KTOP 250520
TAFFOE
TAF
KFOE 250520Z 2506/2606 15010KT P6SM BKN150 WS020/19045KT
      TEMPO 2508/2511 -SHRA
     FM251300 15013KT P6SM BKN090
     FM252200 22010KT P6SM OVC035
     FM260000 30009KT P6SM OVC022=

USA.gov is the U.S. government's official web portal to all federal, state and local government web resources and services.